createdAt,value
2022-10-05T00:00:47.844Z,83.08
2022-10-05T00:03:36.214Z,83.37
2022-10-05T00:06:04.629Z,83.68
2022-10-05T00:08:34.085Z,83.82
2022-10-05T00:11:01.192Z,83.74
2022-10-05T00:13:29.856Z,83.77
2022-10-05T00:16:16.421Z,83.89
2022-10-05T00:18:47.682Z,84.15
2022-10-05T00:21:21.253Z,84.42
2022-10-05T00:23:48.924Z,84.66
2022-10-05T00:26:21.059Z,84.70
2022-10-05T00:28:48.297Z,84.79
2022-10-05T00:31:19.461Z,84.96
2022-10-05T00:33:47.630Z,84.96
2022-10-05T00:36:14.630Z,84.97
2022-10-05T00:38:42.307Z,84.99
2022-10-05T00:41:13.344Z,84.99
2022-10-05T00:43:39.910Z,84.99
2022-10-05T00:46:19.413Z,85.14
2022-10-05T00:49:13.469Z,85.07
2022-10-05T00:51:43.914Z,85.17
2022-10-05T00:54:46.320Z,85.34
2022-10-05T00:57:33.556Z,85.25
2022-10-05T01:00:08.560Z,85.28
2022-10-05T01:03:40.980Z,85.01
2022-10-05T01:06:59.528Z,85.09
2022-10-05T01:09:53.436Z,85.20
2022-10-05T01:12:43.475Z,85.33
2022-10-05T01:15:28.841Z,85.27
2022-10-05T01:18:13.106Z,85.46
2022-10-05T01:21:15.133Z,85.53
2022-10-05T01:24:17.051Z,85.58
2022-10-05T01:26:59.275Z,85.72
2022-10-05T01:29:48.471Z,85.62
2022-10-05T01:32:19.420Z,85.61
2022-10-05T01:35:07.991Z,85.70
2022-10-05T01:37:52.441Z,85.62
2022-10-05T01:40:36.807Z,85.78
2022-10-05T01:43:25.052Z,85.83
2022-10-05T01:45:58.709Z,85.91
2022-10-05T01:48:33.131Z,86.05
2022-10-05T01:51:26.615Z,86.06
2022-10-05T01:54:10.633Z,86.09
2022-10-05T01:57:09.457Z,86.15
2022-10-05T01:59:54.626Z,86.16
2022-10-05T02:02:25.396Z,86.21
2022-10-05T02:05:04.000Z,86.22
2022-10-05T02:07:55.020Z,86.02
2022-10-05T02:11:05.491Z,86.13
2022-10-05T02:13:49.105Z,86.22
2022-10-05T02:16:27.486Z,86.21
2022-10-05T02:19:21.858Z,86.15
2022-10-05T02:22:14.924Z,86.07
2022-10-05T02:24:51.155Z,86.19
2022-10-05T02:27:25.784Z,86.09
2022-10-05T02:30:01.635Z,85.93
2022-10-05T02:33:08.575Z,85.74
2022-10-05T02:35:36.942Z,85.81
2022-10-05T02:38:19.228Z,85.86
2022-10-05T02:41:10.814Z,85.88
2022-10-05T02:43:55.948Z,85.96
2022-10-05T02:46:43.758Z,86.12
2022-10-05T02:49:27.923Z,86.16
2022-10-05T02:52:34.176Z,86.29
2022-10-05T02:55:25.264Z,86.40
2022-10-05T02:58:28.504Z,86.48
2022-10-05T03:01:07.014Z,86.60
2022-10-05T03:03:45.161Z,86.56
2022-10-05T03:06:27.804Z,86.51
2022-10-05T03:09:04.812Z,86.53
2022-10-05T03:12:01.435Z,86.50
2022-10-05T03:14:46.742Z,86.53
2022-10-05T03:17:21.020Z,86.56
2022-10-05T03:19:57.179Z,86.46
2022-10-05T03:22:47.060Z,86.47
2022-10-05T03:25:47.755Z,86.38
2022-10-05T03:28:28.021Z,86.37
2022-10-05T03:30:56.201Z,86.20
2022-10-05T03:33:30.312Z,86.24
2022-10-05T03:35:59.141Z,86.14
2022-10-05T03:38:42.671Z,86.13
2022-10-05T03:41:16.094Z,86.25
2022-10-05T03:44:15.927Z,86.27
2022-10-05T03:47:02.998Z,86.23
2022-10-05T03:50:26.741Z,86.36
2022-10-05T03:53:04.230Z,86.45
2022-10-05T03:55:59.723Z,86.58
2022-10-05T03:58:57.607Z,86.68
2022-10-05T04:01:41.971Z,86.70
2022-10-05T04:04:19.131Z,86.79
2022-10-05T04:06:49.961Z,86.82
2022-10-05T04:09:39.694Z,86.75
2022-10-05T04:12:29.998Z,86.89
2022-10-05T04:15:25.729Z,87.00
2022-10-05T04:18:25.592Z,87.06
2022-10-05T04:21:00.230Z,87.18
2022-10-05T04:23:44.639Z,87.21
2022-10-05T04:26:33.979Z,87.25
2022-10-05T04:29:06.586Z,87.28
2022-10-05T04:31:47.340Z,87.27
2022-10-05T04:34:42.898Z,87.30
2022-10-05T04:37:21.970Z,87.28
2022-10-05T04:39:59.623Z,87.31
2022-10-05T04:42:43.023Z,87.30
2022-10-05T04:45:39.117Z,87.35
2022-10-05T04:48:27.090Z,87.18
2022-10-05T04:51:10.420Z,87.19
2022-10-05T04:53:51.345Z,87.44
2022-10-05T04:56:49.826Z,87.38
2022-10-05T04:59:51.640Z,87.53
2022-10-05T05:02:34.100Z,87.50
2022-10-05T05:05:27.853Z,87.57
2022-10-05T05:08:30.117Z,87.65
2022-10-05T05:11:13.742Z,87.64
2022-10-05T05:13:57.033Z,87.64
2022-10-05T05:16:43.291Z,87.68
2022-10-05T05:19:32.556Z,87.71
2022-10-05T05:22:04.404Z,87.95
2022-10-05T05:25:05.915Z,87.95
2022-10-05T05:27:48.159Z,87.92
2022-10-05T05:30:29.907Z,87.84
2022-10-05T05:33:16.669Z,87.99
2022-10-05T05:35:50.668Z,87.84
2022-10-05T05:38:33.578Z,87.58
2022-10-05T05:41:12.084Z,87.77
2022-10-05T05:43:41.786Z,87.66
2022-10-05T05:46:34.019Z,87.74
2022-10-05T05:49:53.184Z,87.58
2022-10-05T05:52:28.302Z,87.45
2022-10-05T05:55:08.009Z,87.38
2022-10-05T05:57:43.478Z,87.49
2022-10-05T06:00:14.986Z,87.43
2022-10-05T06:03:13.251Z,87.48
2022-10-05T06:05:50.181Z,87.71
2022-10-05T06:09:03.104Z,88.08
2022-10-05T06:11:50.517Z,88.75
2022-10-05T06:14:39.974Z,88.35
2022-10-05T06:17:35.330Z,88.29
2022-10-05T06:20:11.641Z,88.15
2022-10-05T06:22:45.085Z,88.15
2022-10-05T06:25:20.267Z,87.92
2022-10-05T06:28:15.249Z,87.63
2022-10-05T06:31:12.530Z,87.47
2022-10-05T06:33:54.189Z,87.39
2022-10-05T06:36:52.963Z,87.24
2022-10-05T06:39:36.669Z,87.21
2022-10-05T06:42:21.892Z,87.07
2022-10-05T06:45:55.092Z,87.49
2022-10-05T06:49:18.552Z,87.00
2022-10-05T06:52:25.453Z,86.36
2022-10-05T06:55:21.049Z,86.41
2022-10-05T06:58:08.079Z,86.20
2022-10-05T07:00:54.322Z,86.00
2022-10-05T07:03:35.491Z,85.96
2022-10-05T07:06:27.056Z,86.13
2022-10-05T07:09:21.186Z,86.22
2022-10-05T07:12:22.132Z,86.45
2022-10-05T07:15:06.762Z,86.01
2022-10-05T07:17:38.580Z,86.21
2022-10-05T07:20:17.376Z,86.29
2022-10-05T07:23:19.793Z,86.23
2022-10-05T07:26:00.075Z,86.03
2022-10-05T07:28:44.316Z,86.34
2022-10-05T07:31:40.121Z,86.14
2022-10-05T07:34:47.810Z,85.35
2022-10-05T07:37:55.378Z,85.03
2022-10-05T07:40:57.237Z,84.68
2022-10-05T07:44:01.060Z,84.79
2022-10-05T07:46:51.285Z,84.92
2022-10-05T07:49:26.764Z,84.77
2022-10-05T07:52:00.673Z,84.59
2022-10-05T07:54:47.225Z,84.99
2022-10-05T07:57:34.041Z,84.87
2022-10-05T08:00:18.089Z,84.44
2022-10-05T08:02:49.084Z,83.41
2022-10-05T08:05:26.911Z,83.18
2022-10-05T08:08:19.664Z,82.68
2022-10-05T08:11:09.631Z,82.61
2022-10-05T08:13:42.099Z,82.93
2022-10-05T08:16:12.763Z,82.77
2022-10-05T08:19:08.492Z,82.75
2022-10-05T08:21:42.701Z,82.66
2022-10-05T08:24:22.711Z,82.55
2022-10-05T08:27:10.567Z,82.15
2022-10-05T08:30:12.455Z,81.96
2022-10-05T08:33:05.916Z,82.59
2022-10-05T08:35:44.337Z,82.42
2022-10-05T08:38:18.857Z,82.01
2022-10-05T08:41:17.528Z,81.62
2022-10-05T08:44:26.697Z,81.16
2022-10-05T08:47:09.890Z,80.98
2022-10-05T08:49:41.479Z,81.12
2022-10-05T08:52:29.621Z,81.41
2022-10-05T08:55:27.401Z,81.17
2022-10-05T08:58:04.263Z,80.95
2022-10-05T09:01:00.009Z,80.02
2022-10-05T09:03:42.718Z,79.80
2022-10-05T09:06:48.054Z,79.51
2022-10-05T09:10:02.062Z,79.91
2022-10-05T09:12:45.231Z,79.61
2022-10-05T09:15:28.645Z,79.55
2022-10-05T09:18:17.717Z,79.41
2022-10-05T09:20:57.830Z,79.22
2022-10-05T09:23:43.035Z,78.60
2022-10-05T09:26:50.239Z,78.81
2022-10-05T09:30:12.708Z,78.35
2022-10-05T09:32:52.607Z,78.35
2022-10-05T09:35:51.789Z,78.15
2022-10-05T09:38:41.435Z,78.34
2022-10-05T09:41:28.012Z,78.29
2022-10-05T09:44:15.055Z,78.01
2022-10-05T09:47:01.648Z,78.15
2022-10-05T09:49:48.119Z,78.04
2022-10-05T09:52:41.012Z,77.87
2022-10-05T09:55:28.153Z,78.17
2022-10-05T09:58:22.424Z,77.80
2022-10-05T10:01:03.647Z,78.42
2022-10-05T10:03:59.000Z,78.05
2022-10-05T10:06:29.968Z,78.13
2022-10-05T10:09:10.286Z,77.74
2022-10-05T10:11:57.396Z,77.59
2022-10-05T10:15:07.380Z,76.46
2022-10-05T10:18:04.437Z,75.96
2022-10-05T10:20:50.752Z,75.84
2022-10-05T10:23:40.803Z,75.59
2022-10-05T10:26:14.654Z,74.96
2022-10-05T10:29:06.841Z,74.76
2022-10-05T10:31:44.073Z,74.86
2022-10-05T10:34:15.082Z,75.04
2022-10-05T10:37:02.388Z,75.04
2022-10-05T10:39:55.662Z,74.52
2022-10-05T10:42:46.695Z,74.91
2022-10-05T10:45:53.859Z,75.13
2022-10-05T10:48:31.196Z,75.15
2022-10-05T10:51:14.411Z,74.88
2022-10-05T10:54:02.782Z,75.34
2022-10-05T10:57:19.097Z,75.36
2022-10-05T10:59:53.096Z,75.29
2022-10-05T11:03:08.546Z,75.30
2022-10-05T11:06:07.783Z,74.84
2022-10-05T11:08:51.173Z,74.06
2022-10-05T11:11:27.852Z,74.05
2022-10-05T11:14:04.756Z,74.00
2022-10-05T11:17:11.683Z,73.95
2022-10-05T11:19:40.283Z,73.74
2022-10-05T11:22:34.892Z,73.63
2022-10-05T11:25:24.090Z,73.27
2022-10-05T11:28:14.400Z,73.28
2022-10-05T11:31:10.929Z,73.40
2022-10-05T11:33:59.323Z,72.95
2022-10-05T11:36:38.258Z,73.07
2022-10-05T11:39:28.878Z,72.81
2022-10-05T11:42:28.154Z,72.61
2022-10-05T11:45:24.251Z,72.36
2022-10-05T11:48:29.885Z,72.21
2022-10-05T11:51:16.460Z,72.43
2022-10-05T11:54:17.546Z,71.88
2022-10-05T11:56:53.850Z,71.41
2022-10-05T11:59:56.661Z,71.27
2022-10-05T12:02:44.745Z,70.88
2022-10-05T12:05:33.494Z,71.00
2022-10-05T12:08:08.301Z,71.00
2022-10-05T12:11:04.257Z,70.87
2022-10-05T12:13:52.572Z,70.72
2022-10-05T12:16:36.926Z,70.77
2022-10-05T12:19:18.436Z,70.30
2022-10-05T12:21:52.156Z,70.35
2022-10-05T12:24:29.135Z,70.39
2022-10-05T12:27:12.017Z,70.89
2022-10-05T12:29:42.850Z,70.88
2022-10-05T12:32:21.171Z,70.88
2022-10-05T12:35:36.218Z,70.02
2022-10-05T12:38:25.661Z,69.53
2022-10-05T12:41:28.885Z,68.81
2022-10-05T12:44:31.710Z,68.90
2022-10-05T12:47:21.335Z,69.03
2022-10-05T12:50:02.523Z,68.84
2022-10-05T12:52:49.277Z,68.80
2022-10-05T12:55:34.977Z,68.64
2022-10-05T12:58:09.336Z,68.32
2022-10-05T13:00:48.515Z,68.31
2022-10-05T13:03:34.733Z,68.94
2022-10-05T13:06:17.837Z,68.85
2022-10-05T13:08:56.771Z,68.95
2022-10-05T13:11:30.987Z,69.04
2022-10-05T13:14:23.604Z,69.14
2022-10-05T13:16:59.759Z,69.24
2022-10-05T13:19:48.423Z,69.07
2022-10-05T13:22:30.705Z,68.54
2022-10-05T13:25:20.668Z,68.90
2022-10-05T13:28:14.894Z,68.98
2022-10-05T13:30:52.906Z,68.59
2022-10-05T13:33:27.499Z,68.74
2022-10-05T13:36:20.906Z,68.96
2022-10-05T13:39:00.817Z,68.78
2022-10-05T13:41:50.433Z,68.64
2022-10-05T13:44:27.712Z,68.78
2022-10-05T13:47:05.638Z,68.43
2022-10-05T13:49:50.967Z,68.16
2022-10-05T13:52:19.025Z,67.99
2022-10-05T13:55:20.920Z,67.95
2022-10-05T13:58:15.349Z,68.23
2022-10-05T14:01:07.635Z,68.36
2022-10-05T14:03:38.415Z,68.65
2022-10-05T14:06:27.722Z,68.94
2022-10-05T14:08:57.868Z,68.86
2022-10-05T14:11:35.006Z,68.88
2022-10-05T14:14:12.669Z,69.03
2022-10-05T14:16:51.226Z,69.13
2022-10-05T14:19:27.658Z,68.84
2022-10-05T14:22:02.273Z,68.97
2022-10-05T14:24:45.088Z,68.60
2022-10-05T14:27:24.026Z,68.72
2022-10-05T14:29:57.314Z,68.88
2022-10-05T14:32:30.257Z,68.67
2022-10-05T14:35:14.119Z,68.84
2022-10-05T14:37:56.494Z,68.86
2022-10-05T14:40:31.945Z,69.12
2022-10-05T14:43:17.637Z,69.60
2022-10-05T14:46:00.831Z,69.69
2022-10-05T14:48:41.163Z,69.66
2022-10-05T14:51:30.535Z,70.02
2022-10-05T14:54:20.555Z,69.88
2022-10-05T14:57:04.860Z,70.20
2022-10-05T15:00:17.666Z,70.62
2022-10-05T15:03:07.173Z,70.54
2022-10-05T15:05:48.253Z,70.87
2022-10-05T15:08:18.788Z,70.89
2022-10-05T15:10:52.818Z,70.97
2022-10-05T15:13:24.479Z,71.30
2022-10-05T15:15:57.016Z,71.32
2022-10-05T15:18:37.449Z,71.54
2022-10-05T15:21:33.217Z,71.46
2022-10-05T15:24:09.382Z,71.89
2022-10-05T15:26:53.868Z,72.06
2022-10-05T15:29:47.315Z,72.10
2022-10-05T15:32:41.889Z,72.15
2022-10-05T15:35:37.170Z,72.20
2022-10-05T15:38:29.281Z,72.08
2022-10-05T15:41:23.798Z,72.08
2022-10-05T15:44:21.549Z,72.14
2022-10-05T15:47:19.049Z,72.05
2022-10-05T15:50:13.842Z,72.05
2022-10-05T15:52:56.297Z,71.93
2022-10-05T15:55:35.634Z,71.92
2022-10-05T15:58:31.342Z,72.26
2022-10-05T16:01:10.417Z,72.16
2022-10-05T16:03:44.906Z,72.19
2022-10-05T16:07:03.964Z,72.19
2022-10-05T16:10:01.575Z,72.41
2022-10-05T16:12:40.182Z,72.38
2022-10-05T16:15:26.557Z,72.47
2022-10-05T16:18:18.714Z,72.48
2022-10-05T16:20:53.394Z,72.65
2022-10-05T16:23:27.979Z,72.77
2022-10-05T16:26:14.758Z,72.69
2022-10-05T16:29:02.843Z,72.79
2022-10-05T16:31:39.550Z,72.90
2022-10-05T16:34:17.447Z,73.01
2022-10-05T16:37:16.782Z,73.06
2022-10-05T16:40:05.607Z,73.06
2022-10-05T16:42:46.690Z,73.30
2022-10-05T16:45:18.277Z,73.17
2022-10-05T16:48:00.048Z,73.12
2022-10-05T16:50:54.813Z,73.36
2022-10-05T16:53:31.751Z,73.41
2022-10-05T16:56:25.355Z,73.57
2022-10-05T16:59:25.893Z,73.45
2022-10-05T17:02:43.525Z,73.64
2022-10-05T17:05:48.852Z,73.96
2022-10-05T17:08:39.200Z,74.16
2022-10-05T17:11:25.794Z,74.22
2022-10-05T17:14:27.864Z,74.24
2022-10-05T17:17:31.213Z,74.45
2022-10-05T17:20:25.318Z,74.49
2022-10-05T17:23:11.878Z,74.64
2022-10-05T17:25:55.489Z,74.81
2022-10-05T17:28:37.934Z,74.79
2022-10-05T17:31:17.765Z,74.97
2022-10-05T17:34:07.354Z,75.04
2022-10-05T17:36:48.373Z,75.17
2022-10-05T17:39:17.669Z,75.27
2022-10-05T17:41:46.841Z,75.29
2022-10-05T17:44:21.469Z,75.33
2022-10-05T17:46:52.479Z,75.39
2022-10-05T17:49:23.006Z,75.54
2022-10-05T17:52:10.031Z,75.52
2022-10-05T17:55:02.767Z,75.88
2022-10-05T17:57:33.925Z,75.65
2022-10-05T18:00:03.836Z,75.56
2022-10-05T18:02:40.176Z,75.76
2022-10-05T18:05:17.361Z,75.86
2022-10-05T18:07:50.886Z,76.19
2022-10-05T18:10:29.283Z,76.11
2022-10-05T18:13:00.875Z,76.00
2022-10-05T18:15:28.933Z,76.16
2022-10-05T18:18:19.909Z,76.09
2022-10-05T18:21:13.400Z,76.27
2022-10-05T18:24:09.457Z,76.09
2022-10-05T18:26:48.645Z,76.49
2022-10-05T18:29:50.481Z,76.71
2022-10-05T18:32:49.437Z,76.49
2022-10-05T18:35:27.152Z,76.62
2022-10-05T18:38:13.736Z,76.61
2022-10-05T18:41:09.751Z,76.83
2022-10-05T18:44:00.756Z,76.87
2022-10-05T18:46:39.643Z,77.07
2022-10-05T18:49:38.677Z,77.16
2022-10-05T18:52:12.625Z,77.24
2022-10-05T18:54:54.215Z,77.13
2022-10-05T18:57:25.827Z,77.27
2022-10-05T19:00:06.909Z,77.26
2022-10-05T19:02:40.627Z,77.40
2022-10-05T19:05:29.355Z,77.25
2022-10-05T19:08:25.422Z,77.17
2022-10-05T19:11:00.880Z,77.42
2022-10-05T19:13:51.091Z,77.58
2022-10-05T19:16:58.902Z,77.36
2022-10-05T19:19:50.631Z,77.59
2022-10-05T19:22:25.183Z,77.55
2022-10-05T19:25:21.030Z,77.68
2022-10-05T19:28:12.619Z,77.68
2022-10-05T19:30:50.952Z,77.95
2022-10-05T19:33:27.875Z,77.79
2022-10-05T19:36:20.990Z,77.87
2022-10-05T19:38:55.010Z,78.17
2022-10-05T19:41:29.926Z,78.16
2022-10-05T19:44:06.639Z,78.16
2022-10-05T19:46:42.142Z,78.15
2022-10-05T19:49:10.946Z,78.28
2022-10-05T19:51:50.817Z,78.18
2022-10-05T19:54:25.902Z,78.35
2022-10-05T19:56:55.761Z,78.69
2022-10-05T19:59:31.459Z,78.71
2022-10-05T20:02:00.072Z,78.66
2022-10-05T20:04:40.871Z,78.68
2022-10-05T20:07:17.957Z,78.72
2022-10-05T20:09:55.419Z,78.82
2022-10-05T20:13:15.485Z,78.65
2022-10-05T20:16:35.489Z,78.67
2022-10-05T20:19:24.456Z,78.57
2022-10-05T20:21:59.863Z,78.58
2022-10-05T20:24:30.415Z,78.60
2022-10-05T20:27:05.887Z,78.90
2022-10-05T20:29:40.063Z,78.89
2022-10-05T20:32:18.111Z,78.83
2022-10-05T20:34:48.019Z,78.89
2022-10-05T20:37:18.285Z,78.81
2022-10-05T20:39:47.980Z,78.87
2022-10-05T20:42:16.264Z,79.06
2022-10-05T20:44:44.928Z,79.13
2022-10-05T20:47:13.875Z,79.31
2022-10-05T20:49:42.265Z,79.25
2022-10-05T20:52:11.833Z,79.49
2022-10-05T20:54:39.995Z,79.31
2022-10-05T20:57:09.617Z,79.37
2022-10-05T20:59:37.987Z,79.32
2022-10-05T21:02:06.776Z,79.48
2022-10-05T21:04:42.872Z,79.50
2022-10-05T21:07:11.882Z,79.57
2022-10-05T21:09:42.486Z,79.63
2022-10-05T21:12:11.205Z,79.59
2022-10-05T21:14:43.296Z,79.57
2022-10-05T21:17:12.110Z,79.69
2022-10-05T21:19:40.485Z,79.67
2022-10-05T21:22:10.045Z,79.66
2022-10-05T21:24:39.805Z,79.87
2022-10-05T21:27:09.893Z,79.64
2022-10-05T21:29:41.224Z,79.67
2022-10-05T21:32:11.905Z,79.78
2022-10-05T21:34:41.228Z,79.70
2022-10-05T21:37:09.457Z,79.73
2022-10-05T21:39:37.573Z,80.02
2022-10-05T21:42:05.925Z,79.99
2022-10-05T21:44:33.983Z,80.03
2022-10-05T21:47:04.379Z,80.17
2022-10-05T21:49:32.888Z,80.32
2022-10-05T21:52:02.003Z,80.27
2022-10-05T21:54:32.594Z,80.34
2022-10-05T21:57:01.129Z,80.43
2022-10-05T21:59:32.645Z,80.44
2022-10-05T22:02:00.828Z,80.60
2022-10-05T22:04:29.422Z,80.64
2022-10-05T22:06:57.738Z,80.84
2022-10-05T22:09:25.997Z,80.72
2022-10-05T22:11:55.043Z,80.65
2022-10-05T22:14:23.202Z,80.80
2022-10-05T22:16:51.682Z,80.98
2022-10-05T22:19:20.438Z,80.85
2022-10-05T22:21:48.556Z,81.02
2022-10-05T22:24:16.625Z,80.85
2022-10-05T22:26:48.064Z,81.07
2022-10-05T22:29:17.012Z,81.18
2022-10-05T22:31:48.831Z,81.30
2022-10-05T22:34:18.091Z,81.23
2022-10-05T22:36:47.596Z,81.24
2022-10-05T22:39:16.633Z,81.32
2022-10-05T22:41:45.170Z,81.24
2022-10-05T22:44:13.538Z,81.44
2022-10-05T22:46:41.756Z,81.40
2022-10-05T22:49:09.972Z,81.42
2022-10-05T22:51:38.163Z,81.35
2022-10-05T22:54:06.535Z,81.43
2022-10-05T22:56:34.661Z,81.39
2022-10-05T22:59:02.992Z,81.31
2022-10-05T23:01:31.428Z,81.23
2022-10-05T23:03:59.738Z,81.37
2022-10-05T23:06:27.952Z,81.34
2022-10-05T23:08:56.138Z,81.44
2022-10-05T23:11:27.750Z,81.44
2022-10-05T23:13:57.590Z,81.63
2022-10-05T23:16:28.251Z,81.38
2022-10-05T23:18:56.479Z,81.28
2022-10-05T23:21:27.211Z,81.26
2022-10-05T23:23:55.987Z,81.42
2022-10-05T23:26:27.481Z,81.59
2022-10-05T23:28:55.855Z,81.33
2022-10-05T23:31:30.489Z,81.47
2022-10-05T23:33:58.710Z,81.52
2022-10-05T23:36:32.255Z,81.64
2022-10-05T23:39:00.834Z,81.59
2022-10-05T23:41:29.129Z,81.65
2022-10-05T23:43:57.218Z,81.55
2022-10-05T23:46:25.699Z,81.63
2022-10-05T23:48:53.787Z,81.56
2022-10-05T23:51:22.022Z,81.74
2022-10-05T23:53:50.480Z,81.81
2022-10-05T23:56:18.551Z,81.86
2022-10-05T23:58:46.606Z,81.98
